createdAt,value
2022-11-19T00:00:02.361Z,1.00
2022-11-19T00:02:31.086Z,0.57
2022-11-19T00:04:58.224Z,0.73
2022-11-19T00:07:24.782Z,0.70
2022-11-19T00:09:52.030Z,0.80
2022-11-19T00:12:37.038Z,0.73
2022-11-19T00:15:03.837Z,0.80
2022-11-19T00:17:30.424Z,0.85
2022-11-19T00:19:57.666Z,0.80
2022-11-19T00:22:24.227Z,1.02
2022-11-19T00:24:50.961Z,0.70
2022-11-19T00:27:17.496Z,0.90
2022-11-19T00:29:44.020Z,0.98
2022-11-19T00:32:10.594Z,0.90
2022-11-19T00:34:37.083Z,1.30
2022-11-19T00:37:03.772Z,1.00
2022-11-19T00:39:30.379Z,1.27
2022-11-19T00:41:56.966Z,1.20
2022-11-19T00:44:23.493Z,1.15
2022-11-19T00:46:50.015Z,1.23
2022-11-19T00:49:17.019Z,1.10
2022-11-19T00:51:43.724Z,1.33
2022-11-19T00:54:10.362Z,1.08
2022-11-19T00:56:36.873Z,1.20
2022-11-19T00:59:03.523Z,1.30
2022-11-19T01:01:30.102Z,1.35
2022-11-19T01:03:56.716Z,2.00
2022-11-19T01:06:24.835Z,1.33
2022-11-19T01:08:54.655Z,1.48
2022-11-19T01:11:29.358Z,1.13
2022-11-19T01:13:56.241Z,1.10
2022-11-19T01:16:28.027Z,1.15
2022-11-19T01:18:55.067Z,1.23
2022-11-19T01:21:23.874Z,1.15
2022-11-19T01:23:50.396Z,1.30
2022-11-19T01:26:17.642Z,1.23
2022-11-19T01:28:45.105Z,1.05
2022-11-19T01:31:25.872Z,1.13
2022-11-19T01:33:52.937Z,0.93
2022-11-19T01:36:22.876Z,1.25
2022-11-19T01:38:51.037Z,1.30
2022-11-19T01:41:28.851Z,1.08
2022-11-19T01:43:59.091Z,1.30
2022-11-19T01:46:31.697Z,1.27
2022-11-19T01:48:59.313Z,1.15
2022-11-19T01:51:57.172Z,1.27
2022-11-19T01:54:30.042Z,1.20
2022-11-19T01:57:00.310Z,1.35
2022-11-19T01:59:28.217Z,1.00
2022-11-19T02:01:54.828Z,0.98
2022-11-19T02:04:21.564Z,1.17
2022-11-19T02:06:48.369Z,1.10
2022-11-19T02:09:15.024Z,0.95
2022-11-19T02:12:10.143Z,1.25
2022-11-19T02:14:56.460Z,0.80
2022-11-19T02:17:39.354Z,1.15
2022-11-19T02:20:20.997Z,0.73
2022-11-19T02:23:15.514Z,0.93
2022-11-19T02:26:00.683Z,0.80
2022-11-19T02:28:53.345Z,1.00
2022-11-19T02:31:23.958Z,0.80
2022-11-19T02:33:50.477Z,0.80
2022-11-19T02:36:23.300Z,0.75
2022-11-19T02:39:06.206Z,0.90
2022-11-19T02:41:39.877Z,1.20
2022-11-19T02:44:48.104Z,0.80
2022-11-19T02:47:18.879Z,0.80
2022-11-19T02:49:45.840Z,0.90
2022-11-19T02:52:14.143Z,0.80
2022-11-19T02:54:40.706Z,0.82
2022-11-19T02:57:10.717Z,0.80
2022-11-19T02:59:59.549Z,0.80
2022-11-19T03:02:57.283Z,0.80
2022-11-19T03:05:26.446Z,0.93
2022-11-19T03:07:53.596Z,1.10
2022-11-19T03:10:23.109Z,0.93
2022-11-19T03:12:55.541Z,0.82
2022-11-19T03:15:55.080Z,0.80
2022-11-19T03:18:34.108Z,0.77
2022-11-19T03:21:05.453Z,1.00
2022-11-19T03:23:34.324Z,0.82
2022-11-19T03:26:10.513Z,0.75
2022-11-19T03:28:38.082Z,0.90
2022-11-19T03:31:05.753Z,0.85
2022-11-19T03:33:35.290Z,1.10
2022-11-19T03:36:12.954Z,0.80
2022-11-19T03:38:43.150Z,0.90
2022-11-19T03:41:12.608Z,0.70
2022-11-19T03:43:40.867Z,1.00
2022-11-19T03:46:11.083Z,0.90
2022-11-19T03:48:38.704Z,0.77
2022-11-19T03:51:10.543Z,1.02
2022-11-19T03:53:37.227Z,1.00
2022-11-19T03:56:06.989Z,1.33
2022-11-19T03:58:42.169Z,1.00
2022-11-19T04:01:10.000Z,1.20
2022-11-19T04:03:36.806Z,0.75
2022-11-19T04:06:04.616Z,1.17
2022-11-19T04:08:31.307Z,1.23
2022-11-19T04:13:28.100Z,1.00
2022-11-19T04:15:54.622Z,1.10
2022-11-19T04:18:22.222Z,1.08
2022-11-19T04:20:48.782Z,1.10
2022-11-19T04:23:15.558Z,1.05
2022-11-19T04:25:46.716Z,1.00
2022-11-19T04:28:13.250Z,1.15
2022-11-19T04:30:39.785Z,1.25
2022-11-19T04:33:06.432Z,1.10
2022-11-19T04:35:33.415Z,1.10
2022-11-19T04:37:59.945Z,1.10
2022-11-19T04:40:26.542Z,1.17
2022-11-19T04:42:53.231Z,1.40
2022-11-19T04:45:19.843Z,1.05
2022-11-19T04:47:46.391Z,1.00
2022-11-19T04:50:13.000Z,1.05
2022-11-19T04:52:41.460Z,1.00
2022-11-19T04:55:09.444Z,1.60
2022-11-19T04:57:36.008Z,0.93
2022-11-19T05:00:03.956Z,1.00
2022-11-19T05:02:30.459Z,1.40
2022-11-19T05:04:57.021Z,1.42
2022-11-19T05:07:23.626Z,1.00
2022-11-19T05:09:50.367Z,1.17
2022-11-19T05:12:17.305Z,1.10
2022-11-19T05:14:43.871Z,0.93
2022-11-19T05:17:10.397Z,1.00
2022-11-19T05:19:37.020Z,1.05
2022-11-19T05:22:03.579Z,1.42
2022-11-19T05:24:30.215Z,1.10
2022-11-19T05:26:57.051Z,1.70
2022-11-19T05:29:23.658Z,1.27
2022-11-19T05:31:50.260Z,1.30
2022-11-19T05:34:17.040Z,1.20
2022-11-19T05:36:44.112Z,1.40
2022-11-19T05:39:10.606Z,1.10
2022-11-19T05:41:37.196Z,1.35
2022-11-19T05:44:03.892Z,1.25
2022-11-19T05:46:30.376Z,1.58
2022-11-19T05:48:56.981Z,1.25
2022-11-19T05:51:23.570Z,1.40
2022-11-19T05:53:50.196Z,1.27
2022-11-19T05:56:17.179Z,1.27
2022-11-19T05:58:43.738Z,1.13
2022-11-19T06:01:10.222Z,1.52
2022-11-19T06:03:36.857Z,1.35
2022-11-19T06:06:03.520Z,1.30
2022-11-19T06:08:30.090Z,1.77
2022-11-19T06:10:56.678Z,1.38
2022-11-19T06:13:23.238Z,1.30
2022-11-19T06:15:49.734Z,1.60
2022-11-19T06:18:16.400Z,1.40
2022-11-19T06:20:42.920Z,1.30
2022-11-19T06:23:09.497Z,1.30
2022-11-19T06:25:35.991Z,1.33
2022-11-19T06:28:02.597Z,1.40
2022-11-19T06:30:29.194Z,1.48
2022-11-19T06:32:55.770Z,1.45
2022-11-19T06:35:22.320Z,1.20
2022-11-19T06:37:49.268Z,1.38
2022-11-19T06:40:15.830Z,2.15
2022-11-19T06:42:43.668Z,1.60
2022-11-19T06:45:13.814Z,1.40
2022-11-19T06:47:41.885Z,1.63
2022-11-19T06:52:35.870Z,1.52
2022-11-19T06:55:02.479Z,1.67
2022-11-19T06:57:29.054Z,1.00
2022-11-19T06:59:55.653Z,1.58
2022-11-19T07:02:22.160Z,1.92
2022-11-19T07:04:49.410Z,1.63
2022-11-19T07:07:16.048Z,1.60
2022-11-19T07:09:42.708Z,1.55
2022-11-19T07:12:09.543Z,1.50
2022-11-19T07:14:36.146Z,1.38
2022-11-19T07:17:03.045Z,1.85
2022-11-19T07:19:29.655Z,1.52
2022-11-19T07:21:56.214Z,1.58
2022-11-19T07:24:22.929Z,1.75
2022-11-19T07:26:49.508Z,1.73
2022-11-19T07:29:16.546Z,1.70
2022-11-19T07:31:43.266Z,1.63
2022-11-19T07:34:10.620Z,2.13
2022-11-19T07:36:37.352Z,1.70
2022-11-19T07:39:05.134Z,1.58
2022-11-19T07:41:50.440Z,1.92
2022-11-19T07:44:16.989Z,1.67
2022-11-19T07:46:43.492Z,1.63
2022-11-19T07:49:10.339Z,1.58
2022-11-19T07:51:37.037Z,1.75
2022-11-19T07:54:03.943Z,1.90
2022-11-19T07:56:30.482Z,1.25
2022-11-19T07:59:00.003Z,1.73
2022-11-19T08:01:27.046Z,2.10
2022-11-19T08:03:56.538Z,1.98
2022-11-19T08:06:28.027Z,1.80
2022-11-19T08:08:56.188Z,1.92
2022-11-19T08:11:23.313Z,1.73
2022-11-19T08:13:50.076Z,1.83
2022-11-19T08:16:36.077Z,1.50
2022-11-19T08:19:04.365Z,1.35
2022-11-19T08:21:30.937Z,1.52
2022-11-19T08:23:57.549Z,1.63
2022-11-19T08:26:24.781Z,1.90
2022-11-19T08:29:00.722Z,1.27
2022-11-19T08:31:27.327Z,1.67
2022-11-19T08:33:53.852Z,1.35
2022-11-19T08:36:21.035Z,1.67
2022-11-19T08:38:47.640Z,1.60
2022-11-19T08:41:40.299Z,1.75
2022-11-19T08:44:07.092Z,2.00
2022-11-19T08:46:33.801Z,1.48
2022-11-19T08:49:00.499Z,1.80
2022-11-19T08:51:27.295Z,1.85
2022-11-19T08:53:53.858Z,1.75
2022-11-19T08:56:21.397Z,1.63
2022-11-19T08:58:48.313Z,1.85
2022-11-19T09:01:18.360Z,1.70
2022-11-19T09:03:45.495Z,1.70
2022-11-19T09:06:12.748Z,1.42
2022-11-19T09:08:41.225Z,1.90
2022-11-19T09:11:13.846Z,1.45
2022-11-19T09:13:40.648Z,1.50
2022-11-19T09:16:07.991Z,1.60
2022-11-19T09:18:35.487Z,1.27
2022-11-19T09:23:29.256Z,1.33
2022-11-19T09:26:10.635Z,1.55
2022-11-19T09:28:37.893Z,1.20
2022-11-19T09:31:24.777Z,1.02
2022-11-19T09:33:52.341Z,1.13
2022-11-19T09:36:19.854Z,1.08
2022-11-19T09:38:47.589Z,1.35
2022-11-19T09:41:25.366Z,1.00
2022-11-19T09:44:17.068Z,0.82
2022-11-19T09:46:58.164Z,0.90
2022-11-19T09:50:09.314Z,0.93
2022-11-19T09:52:41.068Z,0.90
2022-11-19T09:55:14.726Z,1.20
2022-11-19T09:57:53.629Z,1.15
2022-11-19T10:00:25.029Z,1.25
2022-11-19T10:02:53.364Z,0.80
2022-11-19T10:05:43.405Z,1.10
2022-11-19T10:08:28.593Z,1.00
2022-11-19T10:11:34.445Z,1.33
2022-11-19T10:14:22.879Z,1.00
2022-11-19T10:17:02.685Z,1.17
2022-11-19T10:19:51.442Z,1.50
2022-11-19T10:22:39.909Z,1.02
2022-11-19T10:25:18.180Z,1.00
2022-11-19T10:28:00.316Z,1.00
2022-11-19T10:30:29.036Z,1.10
2022-11-19T10:33:19.858Z,1.10
2022-11-19T10:35:48.434Z,1.00
2022-11-19T10:38:34.444Z,1.02
2022-11-19T10:41:38.793Z,1.20
2022-11-19T10:44:40.194Z,1.05
2022-11-19T10:47:32.065Z,1.23
2022-11-19T10:49:58.959Z,1.10
2022-11-19T10:52:27.671Z,1.30
2022-11-19T10:54:58.539Z,1.27
2022-11-19T10:57:26.024Z,1.10
2022-11-19T10:59:53.462Z,1.00
2022-11-19T11:02:27.984Z,1.02
2022-11-19T11:05:15.563Z,1.50
2022-11-19T11:07:54.760Z,1.40
2022-11-19T11:10:29.624Z,1.00
2022-11-19T11:13:17.616Z,0.88
2022-11-19T11:15:47.183Z,1.30
2022-11-19T11:18:15.038Z,1.17
2022-11-19T11:20:47.299Z,1.13
2022-11-19T11:23:17.529Z,1.15
2022-11-19T11:26:10.519Z,1.20
2022-11-19T11:28:37.161Z,1.50
2022-11-19T11:31:06.110Z,1.23
2022-11-19T11:33:43.211Z,1.27
2022-11-19T11:36:15.320Z,1.33
2022-11-19T11:38:46.828Z,2.20
2022-11-19T11:44:08.546Z,1.00
2022-11-19T11:46:37.983Z,1.45
2022-11-19T11:49:11.199Z,1.03
2022-11-19T11:51:39.847Z,1.38
2022-11-19T11:54:18.145Z,0.93
2022-11-19T11:56:45.594Z,1.50
2022-11-19T11:59:23.438Z,1.67
2022-11-19T12:01:54.923Z,1.30
2022-11-19T12:04:21.929Z,1.20
2022-11-19T12:06:58.844Z,1.00
2022-11-19T12:09:32.604Z,1.30
2022-11-19T12:12:21.885Z,1.20
2022-11-19T12:14:59.135Z,1.17
2022-11-19T12:17:54.588Z,2.58
2022-11-19T12:20:33.652Z,1.30
2022-11-19T12:23:15.653Z,1.38
2022-11-19T12:25:56.456Z,1.38
2022-11-19T12:28:49.815Z,1.48
2022-11-19T12:31:30.005Z,1.40
2022-11-19T12:34:20.440Z,1.67
2022-11-19T12:37:14.282Z,1.40
2022-11-19T12:39:51.142Z,1.83
2022-11-19T12:42:53.111Z,1.45
2022-11-19T12:45:48.405Z,1.27
2022-11-19T12:48:23.722Z,1.60
2022-11-19T12:50:55.816Z,1.70
2022-11-19T12:53:24.814Z,1.90
2022-11-19T12:56:12.638Z,1.63
2022-11-19T12:59:01.913Z,1.52
2022-11-19T13:01:33.863Z,1.30
2022-11-19T13:04:18.824Z,1.42
2022-11-19T13:06:55.431Z,1.58
2022-11-19T13:09:28.063Z,1.27
2022-11-19T13:12:00.568Z,1.67
2022-11-19T13:14:40.998Z,1.45
2022-11-19T13:17:19.224Z,1.70
2022-11-19T13:19:50.003Z,2.10
2022-11-19T13:22:20.621Z,2.10
2022-11-19T13:24:52.874Z,4.35
2022-11-19T13:27:23.457Z,2.03
2022-11-19T13:29:56.924Z,2.58
2022-11-19T13:32:30.479Z,3.05
2022-11-19T13:35:16.192Z,2.40
2022-11-19T13:37:58.909Z,2.38
2022-11-19T13:40:50.157Z,2.45
2022-11-19T13:43:38.102Z,2.30
2022-11-19T13:46:11.207Z,2.08
2022-11-19T13:48:44.254Z,2.20
2022-11-19T13:51:22.090Z,2.67
2022-11-19T13:53:48.687Z,2.08
2022-11-19T13:56:17.242Z,2.05
2022-11-19T13:58:53.147Z,1.98
2022-11-19T14:01:47.103Z,2.13
2022-11-19T14:04:26.840Z,1.98
2022-11-19T14:07:11.814Z,1.98
2022-11-19T14:09:44.500Z,2.50
2022-11-19T14:12:34.587Z,1.98
2022-11-19T14:15:41.654Z,2.15
2022-11-19T14:18:35.903Z,1.80
2022-11-19T14:21:42.878Z,2.42
2022-11-19T14:24:43.012Z,2.45
2022-11-19T14:27:33.168Z,2.20
2022-11-19T14:29:59.630Z,2.67
2022-11-19T14:32:30.350Z,2.60
2022-11-19T14:35:03.041Z,2.67
2022-11-19T14:37:45.473Z,2.80
2022-11-19T14:40:15.076Z,2.50
2022-11-19T14:43:18.814Z,2.60
2022-11-19T14:46:04.274Z,2.92
2022-11-19T14:48:35.719Z,2.38
2022-11-19T14:51:07.275Z,2.40
2022-11-19T14:53:36.977Z,2.78
2022-11-19T14:56:13.682Z,3.90
2022-11-19T14:58:53.810Z,4.30
2022-11-19T15:01:22.287Z,3.40
2022-11-19T15:03:52.749Z,3.88
2022-11-19T15:06:19.857Z,3.88
2022-11-19T15:08:51.480Z,3.65
2022-11-19T15:11:18.214Z,3.75
2022-11-19T15:13:48.819Z,4.63
2022-11-19T15:16:25.503Z,3.97
2022-11-19T15:19:05.870Z,3.28
2022-11-19T15:21:44.591Z,4.10
2022-11-19T15:24:26.813Z,3.70
2022-11-19T15:27:41.599Z,3.50
2022-11-19T15:30:24.552Z,3.50
2022-11-19T15:33:15.713Z,3.20
2022-11-19T15:36:03.930Z,3.38
2022-11-19T15:38:54.129Z,3.17
2022-11-19T15:41:23.295Z,3.58
2022-11-19T15:44:13.849Z,3.50
2022-11-19T15:46:47.201Z,3.10
2022-11-19T15:49:21.553Z,3.13
2022-11-19T15:52:17.707Z,3.20
2022-11-19T15:54:44.907Z,3.05
2022-11-19T15:57:17.341Z,3.03
2022-11-19T15:59:47.746Z,3.55
2022-11-19T16:02:19.815Z,2.95
2022-11-19T16:04:49.134Z,3.03
2022-11-19T16:07:21.212Z,3.30
2022-11-19T16:09:49.439Z,3.63
2022-11-19T16:15:42.843Z,2.97
2022-11-19T16:18:19.624Z,3.45
2022-11-19T16:20:48.535Z,4.85
2022-11-19T16:23:20.021Z,3.40
2022-11-19T16:25:47.538Z,2.95
2022-11-19T16:28:20.697Z,2.65
2022-11-19T16:30:52.979Z,3.65
2022-11-19T16:33:24.448Z,4.15
2022-11-19T16:35:53.509Z,3.97
2022-11-19T16:38:26.991Z,3.28
2022-11-19T16:41:14.070Z,2.90
2022-11-19T16:43:41.743Z,2.72
2022-11-19T16:46:12.044Z,4.00
2022-11-19T16:48:41.535Z,2.97
2022-11-19T16:51:34.373Z,2.88
2022-11-19T16:54:02.252Z,2.60
2022-11-19T16:56:41.431Z,2.20
2022-11-19T16:59:17.400Z,2.67
2022-11-19T17:01:50.828Z,2.40
2022-11-19T17:04:18.681Z,2.42
2022-11-19T17:06:45.457Z,2.60
2022-11-19T17:09:30.989Z,2.40
2022-11-19T17:12:16.297Z,2.65
2022-11-19T17:14:47.626Z,2.70
2022-11-19T17:17:40.218Z,2.50
2022-11-19T17:20:32.159Z,2.28
2022-11-19T17:22:59.854Z,3.10
2022-11-19T17:25:26.509Z,3.15
2022-11-19T17:27:55.523Z,2.58
2022-11-19T17:30:27.323Z,2.42
2022-11-19T17:32:58.644Z,2.97
2022-11-19T17:35:43.007Z,3.20
2022-11-19T17:38:16.492Z,2.53
2022-11-19T17:40:53.178Z,3.13
2022-11-19T17:43:43.875Z,3.08
2022-11-19T17:46:10.585Z,2.80
2022-11-19T17:48:40.499Z,3.05
2022-11-19T17:51:14.203Z,2.75
2022-11-19T17:53:40.963Z,3.35
2022-11-19T17:56:16.854Z,3.63
2022-11-19T17:58:43.486Z,3.45
2022-11-19T18:01:10.384Z,3.60
2022-11-19T18:03:39.066Z,3.53
2022-11-19T18:06:08.382Z,3.75
2022-11-19T18:08:36.923Z,3.55
2022-11-19T18:11:04.356Z,3.80
2022-11-19T18:13:33.448Z,3.28
2022-11-19T18:15:59.989Z,3.20
2022-11-19T18:18:26.589Z,3.58
2022-11-19T18:20:57.606Z,3.55
2022-11-19T18:23:27.345Z,3.63
2022-11-19T18:25:53.979Z,3.75
2022-11-19T18:28:20.550Z,3.90
2022-11-19T18:30:47.186Z,3.80
2022-11-19T18:33:13.856Z,3.78
2022-11-19T18:35:40.392Z,3.72
2022-11-19T18:38:07.009Z,3.80
2022-11-19T18:40:33.593Z,3.65
2022-11-19T18:43:18.959Z,3.63
2022-11-19T18:45:45.496Z,3.90
2022-11-19T18:48:12.109Z,3.72
2022-11-19T18:50:38.650Z,3.83
2022-11-19T18:53:05.252Z,3.40
2022-11-19T18:55:31.806Z,3.85
2022-11-19T18:57:58.560Z,3.55
2022-11-19T19:00:25.356Z,3.80
2022-11-19T19:02:51.911Z,4.63
2022-11-19T19:05:18.565Z,4.53
2022-11-19T19:07:48.298Z,4.05
2022-11-19T19:10:15.298Z,4.07
2022-11-19T19:12:42.672Z,3.55
2022-11-19T19:15:10.301Z,3.95
2022-11-19T19:17:37.007Z,4.18
2022-11-19T19:20:03.857Z,3.70
2022-11-19T19:22:30.445Z,3.47
2022-11-19T19:24:58.467Z,4.13
2022-11-19T19:27:25.586Z,3.58
2022-11-19T19:29:52.174Z,3.70
2022-11-19T19:32:18.734Z,3.63
2022-11-19T19:34:45.310Z,3.17
2022-11-19T19:37:11.906Z,3.83
2022-11-19T19:39:38.671Z,3.72
2022-11-19T19:42:05.298Z,3.47
2022-11-19T19:44:32.141Z,3.20
2022-11-19T19:46:59.352Z,3.05
2022-11-19T19:49:27.113Z,3.33
2022-11-19T19:51:53.713Z,4.13
2022-11-19T19:54:20.436Z,5.57
2022-11-19T19:56:47.028Z,6.72
2022-11-19T19:59:14.166Z,5.93
2022-11-19T20:01:44.767Z,6.57
2022-11-19T20:04:11.877Z,4.22
2022-11-19T20:06:41.636Z,3.90
2022-11-19T20:09:08.922Z,3.63
2022-11-19T20:11:36.840Z,3.35
2022-11-19T20:14:03.973Z,3.05
2022-11-19T20:16:32.196Z,3.40
2022-11-19T20:18:59.821Z,3.30
2022-11-19T20:21:28.898Z,3.95
2022-11-19T20:23:55.957Z,3.80
2022-11-19T20:26:24.520Z,3.30
2022-11-19T20:28:56.330Z,3.35
2022-11-19T20:31:23.384Z,3.53
2022-11-19T20:33:58.155Z,4.18
2022-11-19T20:36:26.522Z,3.00
2022-11-19T20:38:53.426Z,3.08
2022-11-19T20:41:40.305Z,3.63
2022-11-19T20:44:22.011Z,2.95
2022-11-19T20:46:53.961Z,3.58
2022-11-19T20:49:24.510Z,3.40
2022-11-19T20:51:52.803Z,4.20
2022-11-19T20:54:20.109Z,3.30
2022-11-19T20:56:48.784Z,3.58
2022-11-19T20:59:15.630Z,3.28
2022-11-19T21:01:46.188Z,3.20
2022-11-19T21:04:13.179Z,2.95
2022-11-19T21:06:40.407Z,3.65
2022-11-19T21:09:15.740Z,2.90
2022-11-19T21:11:43.556Z,3.03
2022-11-19T21:14:10.300Z,3.38
2022-11-19T21:16:37.050Z,3.28
2022-11-19T21:19:04.085Z,3.03
2022-11-19T21:21:31.054Z,3.75
2022-11-19T21:23:58.234Z,3.65
2022-11-19T21:26:26.524Z,4.03
2022-11-19T21:28:57.517Z,3.95
2022-11-19T21:31:38.474Z,4.35
2022-11-19T21:34:07.578Z,4.63
2022-11-19T21:36:34.809Z,3.97
2022-11-19T21:39:02.951Z,3.88
2022-11-19T21:43:56.629Z,4.40
2022-11-19T21:46:23.445Z,4.72
2022-11-19T21:48:50.173Z,4.20
2022-11-19T21:51:21.481Z,4.30
2022-11-19T21:53:53.245Z,3.75
2022-11-19T21:56:19.778Z,4.68
2022-11-19T21:58:46.665Z,5.07
2022-11-19T22:01:13.472Z,4.78
2022-11-19T22:03:44.310Z,4.00
2022-11-19T22:06:11.948Z,5.10
2022-11-19T22:08:40.092Z,4.43
2022-11-19T22:11:26.270Z,4.43
2022-11-19T22:13:54.728Z,4.20
2022-11-19T22:16:21.932Z,5.07
2022-11-19T22:18:48.477Z,5.22
2022-11-19T22:21:15.815Z,4.45
2022-11-19T22:23:42.681Z,4.60
2022-11-19T22:26:10.590Z,4.50
2022-11-19T22:28:37.662Z,4.57
2022-11-19T22:31:04.689Z,5.32
2022-11-19T22:33:32.456Z,5.03
2022-11-19T22:36:02.704Z,5.30
2022-11-19T22:38:31.992Z,5.15
2022-11-19T22:41:07.205Z,4.93
2022-11-19T22:43:37.899Z,4.47
2022-11-19T22:46:05.277Z,5.25
2022-11-19T22:48:32.864Z,4.63
2022-11-19T22:51:00.155Z,4.35
2022-11-19T22:53:27.328Z,5.25
2022-11-19T22:56:02.719Z,4.45
2022-11-19T22:58:32.223Z,4.30
2022-11-19T23:00:59.045Z,4.43
2022-11-19T23:03:25.711Z,4.22
2022-11-19T23:05:53.621Z,4.47
2022-11-19T23:08:20.430Z,4.80
2022-11-19T23:10:47.998Z,5.60
2022-11-19T23:13:34.567Z,4.80
2022-11-19T23:16:15.108Z,4.97
2022-11-19T23:18:49.733Z,5.65
2022-11-19T23:21:27.700Z,5.13
2022-11-19T23:23:55.136Z,5.28
2022-11-19T23:26:24.163Z,5.43
2022-11-19T23:28:51.829Z,4.93
2022-11-19T23:31:23.362Z,5.45
2022-11-19T23:33:55.815Z,5.18
2022-11-19T23:36:30.372Z,5.05
2022-11-19T23:38:57.515Z,5.93
2022-11-19T23:41:24.122Z,6.28
2022-11-19T23:43:53.387Z,4.93
2022-11-19T23:46:30.974Z,6.25
2022-11-19T23:48:58.498Z,5.50
2022-11-19T23:51:28.214Z,6.32
2022-11-19T23:53:55.244Z,5.55
2022-11-19T23:56:23.133Z,5.68
2022-11-19T23:58:50.207Z,6.20
